createdAt,value
2019-04-22T00:00:57.603Z,2.15
2019-04-22T00:05:13.152Z,2.40
2019-04-22T00:09:44.491Z,2.42
2019-04-22T00:13:45.778Z,2.60
2019-04-22T00:17:57.060Z,2.33
2019-04-22T00:22:00.629Z,2.50
2019-04-22T00:26:03.890Z,2.02
2019-04-22T00:34:12.979Z,2.40
2019-04-22T00:38:23.445Z,2.25
2019-04-22T00:42:28.407Z,2.30
2019-04-22T00:46:36.149Z,2.87
2019-04-22T00:50:37.410Z,2.72
2019-04-22T00:54:47.398Z,2.98
2019-04-22T00:58:45.335Z,2.45
2019-04-22T01:03:04.505Z,2.47
2019-04-22T01:07:02.052Z,2.17
2019-04-22T01:11:13.452Z,2.35
2019-04-22T01:15:17.597Z,2.50
2019-04-22T01:19:21.789Z,2.37
2019-04-22T01:23:23.966Z,2.35
2019-04-22T01:27:27.660Z,2.37
2019-04-22T01:31:20.383Z,2.58
2019-04-22T01:35:35.123Z,2.60
2019-04-22T01:39:50.449Z,2.42
2019-04-22T01:44:10.980Z,2.52
2019-04-22T01:48:05.427Z,2.70
2019-04-22T01:52:11.518Z,2.42
2019-04-22T01:56:13.639Z,2.30
2019-04-22T02:00:11.263Z,2.42
2019-04-22T02:04:35.402Z,2.30
2019-04-22T02:08:44.878Z,2.50
2019-04-22T02:12:43.235Z,2.65
2019-04-22T02:16:49.736Z,2.52
2019-04-22T02:20:48.610Z,2.90
2019-04-22T02:25:00.436Z,2.98
2019-04-22T02:29:01.136Z,2.40
2019-04-22T02:37:21.231Z,2.30
2019-04-22T02:41:26.513Z,2.33
2019-04-22T02:45:40.617Z,2.70
2019-04-22T02:50:00.807Z,2.80
2019-04-22T02:54:17.497Z,2.72
2019-04-22T02:57:47.113Z,2.47
2019-04-22T03:01:55.643Z,2.58
2019-04-22T03:10:15.489Z,2.42
2019-04-22T03:14:18.496Z,2.67
2019-04-22T03:18:33.532Z,2.27
2019-04-22T03:26:48.874Z,2.50
2019-04-22T03:51:18.314Z,2.25
2019-04-22T03:55:15.594Z,2.42
2019-04-22T04:03:50.685Z,2.37
2019-04-22T04:07:47.532Z,2.12
2019-04-22T04:11:57.984Z,2.67
2019-04-22T04:15:55.774Z,2.65
2019-04-22T04:20:06.198Z,2.37
2019-04-22T04:24:11.339Z,2.30
2019-04-22T04:32:27.426Z,2.25
2019-04-22T04:36:23.724Z,2.17
2019-04-22T04:40:29.122Z,2.25
2019-04-22T04:44:59.171Z,2.80
2019-04-22T04:48:42.821Z,2.42
2019-04-22T04:56:47.012Z,2.35
2019-04-22T05:05:04.281Z,2.60
2019-04-22T05:09:15.279Z,2.12
2019-04-22T05:13:22.961Z,2.42
2019-04-22T05:17:18.325Z,2.25
2019-04-22T05:21:16.343Z,2.20
2019-04-22T05:25:23.611Z,2.90
2019-04-22T05:29:42.845Z,2.60
2019-04-22T05:33:36.064Z,2.10
2019-04-22T05:37:41.553Z,2.20
2019-04-22T05:41:48.632Z,2.27
2019-04-22T05:45:53.752Z,2.55
2019-04-22T05:49:54.906Z,2.47
2019-04-22T05:54:05.819Z,2.17
2019-04-22T05:58:22.579Z,2.17
2019-04-22T06:02:23.510Z,2.22
2019-04-22T06:10:39.218Z,2.70
2019-04-22T06:14:34.638Z,2.30
2019-04-22T06:18:39.649Z,2.72
2019-04-22T06:22:50.986Z,2.35
2019-04-22T06:27:01.651Z,2.40
2019-04-22T06:31:02.545Z,2.52
2019-04-22T06:35:09.512Z,2.70
2019-04-22T06:39:14.301Z,2.33
2019-04-22T06:43:20.126Z,2.30
2019-04-22T06:47:39.932Z,2.42
2019-04-22T06:51:26.934Z,2.20
2019-04-22T06:55:35.692Z,2.42
2019-04-22T06:59:37.763Z,2.22
2019-04-22T07:03:56.939Z,2.52
2019-04-22T07:07:55.188Z,2.62
2019-04-22T07:11:58.815Z,2.52
2019-04-22T07:20:10.793Z,2.33
2019-04-22T07:28:20.193Z,2.00
2019-04-22T07:40:43.947Z,1.80
2019-04-22T07:44:51.123Z,1.98
2019-04-22T07:48:53.640Z,2.17
2019-04-22T07:52:57.080Z,1.77
2019-04-22T07:57:12.023Z,2.02
2019-04-22T08:01:18.501Z,1.85
2019-04-22T08:05:22.415Z,1.65
2019-04-22T08:09:30.959Z,1.67
2019-04-22T08:13:32.633Z,1.45
2019-04-22T08:21:45.491Z,1.87
2019-04-22T08:25:50.948Z,1.70
2019-04-22T08:34:01.920Z,1.70
2019-04-22T08:38:06.869Z,1.60
2019-04-22T08:42:20.427Z,1.70
2019-04-22T08:46:23.594Z,1.52
2019-04-22T08:50:38.814Z,1.52
2019-04-22T08:58:43.020Z,1.55
2019-04-22T09:02:49.566Z,1.30
2019-04-22T09:10:58.621Z,1.30
2019-04-22T09:14:57.215Z,1.30
2019-04-22T09:19:22.438Z,1.15
2019-04-22T09:23:28.702Z,1.47
2019-04-22T09:27:25.114Z,1.15
2019-04-22T09:31:23.995Z,1.20
2019-04-22T09:35:37.574Z,1.50
2019-04-22T09:39:41.280Z,1.40
2019-04-22T09:48:03.130Z,1.67
2019-04-22T09:52:01.426Z,1.92
2019-04-22T09:56:03.881Z,1.80
2019-04-22T10:00:17.154Z,1.95
2019-04-22T10:04:16.057Z,1.80
2019-04-22T10:08:31.987Z,1.82
2019-04-22T10:12:31.783Z,1.25
2019-04-22T10:16:56.589Z,1.60
2019-04-22T10:20:38.450Z,1.70
2019-04-22T10:24:45.070Z,2.02
2019-04-22T10:29:00.884Z,1.75
2019-04-22T10:32:56.283Z,2.10
2019-04-22T10:36:39.794Z,1.60
2019-04-22T10:40:44.921Z,1.80
2019-04-22T10:44:50.354Z,1.77
2019-04-22T10:48:55.059Z,1.70
2019-04-22T10:52:59.392Z,1.80
2019-04-22T10:57:03.382Z,1.75
2019-04-22T11:01:07.578Z,2.00
2019-04-22T11:05:12.310Z,1.67
2019-04-22T11:09:18.252Z,1.80
2019-04-22T11:13:24.144Z,1.70
2019-04-22T11:17:29.323Z,2.05
2019-04-22T11:21:36.006Z,1.47
2019-04-22T11:25:41.324Z,1.50
2019-04-22T11:29:47.819Z,1.35
2019-04-22T11:33:54.434Z,1.25
2019-04-22T11:37:59.201Z,1.50
2019-04-22T11:42:08.007Z,1.50
2019-04-22T11:46:13.435Z,1.60
2019-04-22T11:50:17.843Z,1.40
2019-04-22T11:54:22.969Z,1.35
2019-04-22T11:58:28.902Z,1.27
2019-04-22T12:02:33.254Z,1.80
2019-04-22T12:06:40.157Z,1.30
2019-04-22T12:10:51.691Z,1.72
2019-04-22T12:14:52.302Z,1.40
2019-04-22T12:18:58.502Z,1.30
2019-04-22T12:23:03.226Z,1.32
2019-04-22T12:27:08.577Z,1.10
2019-04-22T12:31:13.546Z,1.70
2019-04-22T12:35:17.922Z,1.57
2019-04-22T12:39:23.264Z,1.10
2019-04-22T12:43:28.254Z,1.40
2019-04-22T12:47:33.700Z,1.20
2019-04-22T12:51:38.872Z,1.05
2019-04-22T12:55:45.926Z,1.40
2019-04-22T12:59:50.397Z,1.40
2019-04-22T13:04:00.299Z,1.00
2019-04-22T13:08:00.256Z,1.37
2019-04-22T13:12:26.698Z,1.27
2019-04-22T13:16:31.329Z,1.30
2019-04-22T13:20:36.535Z,1.20
2019-04-22T13:24:41.621Z,1.05
2019-04-22T13:28:47.202Z,1.00
2019-04-22T13:32:52.597Z,1.32
2019-04-22T13:36:58.991Z,1.00
2019-04-22T13:41:16.510Z,1.10
2019-04-22T13:45:09.745Z,0.90
2019-04-22T13:49:53.191Z,0.98
2019-04-22T13:57:43.959Z,1.02
2019-04-22T14:01:52.388Z,1.20
2019-04-22T14:05:58.540Z,1.20
2019-04-22T14:10:04.475Z,1.52
2019-04-22T14:14:09.218Z,1.40
2019-04-22T14:18:14.843Z,0.90
2019-04-22T14:22:20.024Z,1.20
2019-04-22T14:26:25.067Z,1.00
2019-04-22T14:30:30.531Z,1.10
2019-04-22T14:34:36.022Z,0.90
2019-04-22T14:38:41.729Z,1.05
2019-04-22T14:43:06.009Z,0.88
2019-04-22T14:47:26.465Z,1.10
2019-04-22T14:51:18.460Z,1.40
2019-04-22T14:55:10.381Z,0.95
2019-04-22T14:59:09.419Z,1.00
2019-04-22T15:03:13.731Z,1.07
2019-04-22T15:07:19.080Z,1.37
2019-04-22T15:11:23.314Z,0.85
2019-04-22T15:15:49.303Z,1.20
2019-04-22T15:19:58.423Z,1.20
2019-04-22T15:24:23.018Z,1.10
2019-04-22T15:28:27.314Z,1.20
2019-04-22T15:32:31.698Z,1.20
2019-04-22T15:36:35.994Z,1.00
2019-04-22T15:40:40.694Z,1.10
2019-04-22T15:44:46.235Z,1.20
2019-04-22T15:48:51.748Z,1.00
2019-04-22T15:52:58.908Z,1.00
2019-04-22T15:57:02.604Z,1.75
2019-04-22T16:01:16.176Z,1.20
2019-04-22T16:05:14.920Z,0.98
2019-04-22T16:09:20.475Z,0.80
2019-04-22T16:13:28.713Z,1.10
2019-04-22T16:17:30.750Z,0.98
2019-04-22T16:21:45.471Z,0.80
2019-04-22T16:26:01.064Z,1.10
2019-04-22T16:30:05.851Z,0.93
2019-04-22T16:34:11.345Z,0.85
2019-04-22T16:38:16.967Z,1.07
2019-04-22T16:42:31.696Z,0.80
2019-04-22T16:46:27.786Z,0.93
2019-04-22T16:50:32.855Z,0.90
2019-04-22T16:54:38.225Z,0.80
2019-04-22T16:58:43.027Z,0.80
2019-04-22T17:02:58.835Z,0.70
2019-04-22T17:07:05.743Z,0.65
2019-04-22T17:11:11.642Z,0.68
2019-04-22T17:15:18.160Z,0.65
2019-04-22T17:19:23.544Z,0.72
2019-04-22T17:23:27.805Z,0.70
2019-04-22T17:27:34.435Z,0.57
2019-04-22T17:31:40.851Z,0.93
2019-04-22T17:35:46.717Z,0.80
2019-04-22T17:40:05.704Z,0.88
2019-04-22T17:44:25.004Z,0.68
2019-04-22T17:48:30.491Z,0.82
2019-04-22T17:52:36.412Z,0.75
2019-04-22T17:56:46.845Z,0.70
2019-04-22T18:00:44.508Z,0.90
2019-04-22T18:04:45.706Z,0.82
2019-04-22T18:09:01.863Z,0.60
2019-04-22T18:13:16.897Z,0.78
2019-04-22T18:17:17.266Z,0.68
2019-04-22T18:21:13.321Z,1.00
2019-04-22T18:25:21.440Z,1.10
2019-04-22T18:29:27.097Z,1.00
2019-04-22T18:33:32.966Z,1.07
2019-04-22T18:37:42.486Z,0.90
2019-04-22T18:41:48.403Z,0.98
2019-04-22T18:46:02.266Z,1.02
2019-04-22T18:49:55.024Z,1.10
2019-04-22T18:54:18.541Z,1.07
2019-04-22T18:58:16.791Z,1.00
2019-04-22T19:02:11.789Z,0.93
2019-04-22T19:06:44.775Z,1.40
2019-04-22T19:10:56.095Z,1.00
2019-04-22T19:14:54.128Z,1.10
2019-04-22T19:19:05.876Z,1.10
2019-04-22T19:23:06.931Z,1.00
2019-04-22T19:27:09.578Z,1.30
2019-04-22T19:31:14.843Z,1.10
2019-04-22T19:35:15.631Z,1.00
2019-04-22T19:39:26.110Z,1.37
2019-04-22T19:43:33.142Z,1.20
2019-04-22T19:47:43.445Z,1.05
2019-04-22T19:51:53.927Z,1.20
2019-04-22T19:55:49.776Z,1.10
2019-04-22T20:00:03.864Z,1.12
2019-04-22T20:04:25.096Z,1.10
2019-04-22T20:08:23.350Z,1.35
2019-04-22T20:12:24.156Z,1.20
2019-04-22T20:16:28.494Z,1.40
2019-04-22T20:20:40.234Z,1.10
2019-04-22T20:24:28.477Z,1.25
2019-04-22T20:28:52.473Z,1.02
2019-04-22T20:32:50.904Z,1.10
2019-04-22T20:37:10.722Z,1.47
2019-04-22T20:41:05.646Z,1.10
2019-04-22T20:45:18.351Z,1.15
2019-04-22T20:49:22.327Z,1.30
2019-04-22T20:53:32.861Z,1.20
2019-04-22T20:57:34.721Z,1.12
2019-04-22T21:01:39.741Z,0.93
2019-04-22T21:05:38.349Z,1.02
2019-04-22T21:09:48.989Z,0.95
2019-04-22T21:13:55.965Z,1.30
2019-04-22T21:18:04.373Z,1.30
2019-04-22T21:22:07.958Z,0.90
2019-04-22T21:26:13.469Z,1.10
2019-04-22T21:30:19.501Z,1.30
2019-04-22T21:34:23.413Z,1.20
2019-04-22T21:38:33.121Z,1.10
2019-04-22T21:42:41.741Z,1.17
2019-04-22T21:46:51.189Z,1.10
2019-04-22T21:50:59.872Z,1.02
2019-04-22T21:55:04.321Z,0.95
2019-04-22T21:59:07.894Z,1.05
2019-04-22T22:03:17.723Z,1.10
2019-04-22T22:07:05.329Z,0.70
2019-04-22T22:11:24.589Z,1.00
2019-04-22T22:15:32.996Z,0.80
2019-04-22T22:19:37.997Z,0.93
2019-04-22T22:23:43.684Z,0.90
2019-04-22T22:27:44.777Z,0.90
2019-04-22T22:32:00.110Z,1.05
2019-04-22T22:35:58.083Z,0.88
2019-04-22T22:39:55.487Z,0.80
2019-04-22T22:43:57.018Z,0.70
2019-04-22T22:48:21.623Z,1.10
2019-04-22T22:52:45.007Z,0.80
2019-04-22T22:56:40.982Z,1.00
2019-04-22T23:00:35.125Z,0.75
2019-04-22T23:04:45.535Z,0.80
2019-04-22T23:08:53.836Z,0.75
2019-04-22T23:13:03.219Z,0.70
2019-04-22T23:16:49.533Z,0.72
2019-04-22T23:20:48.349Z,0.93
2019-04-22T23:25:17.319Z,0.60
2019-04-22T23:29:31.734Z,0.85
2019-04-22T23:33:43.844Z,0.80
2019-04-22T23:37:52.647Z,0.93
2019-04-22T23:42:20.911Z,0.90
2019-04-22T23:46:02.387Z,1.07
2019-04-22T23:50:08.888Z,0.70
2019-04-22T23:54:18.655Z,0.90
2019-04-22T23:58:37.381Z,1.00
